Time;durP1;ratioP1;P1;durP2;ratioP2;P2;SDS_P1;SDS_P2;PMS_P1;PMS_P2;Temp;Humidity;BMP_temperature;BMP_pressure;BME280_temperature;BME280_humidity;BME280_pressure;Samples;Min_cycle;Max_cycle;Signal;HPM_P1;HPM_P2
2021/10/12 00:01:29;;;;;;;72.13;41.83;;;;;;;7.93;73.56;98972.74;2148936;83;20955;-82
2021/10/12 00:04:30;;;;;;;80.10;43.27;;;;;;;7.94;73.33;98970.60;2148888;83;20991;-82
2021/10/12 00:07:30;;;;;;;71.50;42.17;;;;;;;7.97;73.82;98966.78;2148844;83;20927;-83
2021/10/12 00:10:31;;;;;;;81.07;44.87;;;;;;;7.98;73.93;98971.13;2148767;83;20892;-83
2021/10/12 00:13:31;;;;;;;73.63;41.40;;;;;;;7.98;74.51;98964.63;2148836;83;21295;-82
2021/10/12 00:16:32;;;;;;;79.20;43.23;;;;;;;8.27;76.77;98962.29;2148774;83;21339;-82
2021/10/12 00:19:32;;;;;;;80.17;44.07;;;;;;;8.54;73.96;98959.88;2148661;83;21022;-81
2021/10/12 00:22:33;;;;;;;72.50;42.77;;;;;;;8.39;73.85;98953.03;2148810;83;20979;-81
2021/10/12 00:25:33;;;;;;;79.90;44.27;;;;;;;8.28;74.00;98953.64;2148890;82;20924;-83
2021/10/12 00:28:34;;;;;;;79.97;44.73;;;;;;;8.21;74.59;98950.45;2148897;83;20923;-81
2021/10/12 00:31:34;;;;;;;76.37;45.03;;;;;;;8.15;74.74;98947.70;2148535;83;20911;-82
2021/10/12 00:34:35;;;;;;;77.87;45.00;;;;;;;8.12;75.24;98945.04;2148753;83;21331;-82
2021/10/12 00:37:35;;;;;;;71.83;43.33;;;;;;;8.09;75.36;98948.87;2148728;83;20931;-84
2021/10/12 00:40:36;;;;;;;73.47;43.10;;;;;;;8.08;75.40;98948.41;2148536;83;20947;-83
2021/10/12 00:43:37;;;;;;;79.77;45.20;;;;;;;8.03;75.88;98946.12;2148851;83;20951;-81
2021/10/12 00:46:37;;;;;;;76.33;44.57;;;;;;;7.95;75.97;98947.66;2148476;83;20948;-82
2021/10/12 00:49:38;;;;;;;86.73;48.53;;;;;;;7.88;76.45;98943.16;2148328;83;20998;-83
2021/10/12 00:52:38;;;;;;;77.13;44.00;;;;;;;7.79;77.03;98939.89;2148819;83;20936;-83
2021/10/12 00:55:39;;;;;;;75.67;43.53;;;;;;;7.78;76.84;98939.85;2148967;83;21351;-84
2021/10/12 00:58:39;;;;;;;80.67;47.63;;;;;;;7.77;76.82;98933.78;2148605;83;20940;-83
2021/10/12 01:01:40;;;;;;;80.77;45.90;;;;;;;7.78;76.74;98940.73;2148640;83;20951;-84
2021/10/12 01:04:41;;;;;;;75.07;44.80;;;;;;;7.80;77.36;98933.88;2158142;83;21057;-83
2021/10/12 01:07:41;;;;;;;66.97;41.63;;;;;;;7.83;77.27;98930.48;2159103;82;21285;-82
2021/10/12 01:10:42;;;;;;;75.57;43.77;;;;;;;7.86;77.37;98925.36;2159108;82;21348;-83
2021/10/12 01:13:42;;;;;;;65.70;41.10;;;;;;;7.90;77.42;98934.98;2159329;82;20981;-83
2021/10/12 01:16:43;;;;;;;55.97;35.20;;;;;;;7.94;77.27;98926.41;2159289;82;20937;-81
2021/10/12 01:19:43;;;;;;;62.57;38.73;;;;;;;7.98;77.82;98927.82;2159259;82;21000;-81
2021/10/12 01:22:44;;;;;;;69.30;38.43;;;;;;;7.98;77.86;98928.24;2159065;82;20973;-81
2021/10/12 01:25:44;;;;;;;60.97;38.70;;;;;;;7.95;78.28;98929.05;2159229;82;20925;-82
2021/10/12 01:28:45;;;;;;;63.20;38.40;;;;;;;7.92;78.46;98921.60;2159163;82;21313;-81
2021/10/12 01:31:45;;;;;;;58.50;36.27;;;;;;;7.91;78.59;98927.64;2159018;82;21349;-81
2021/10/12 01:34:46;;;;;;;55.10;35.00;;;;;;;7.87;78.66;98922.80;2159115;82;20978;-82
2021/10/12 01:37:46;;;;;;;61.60;38.17;;;;;;;7.85;78.87;98923.59;2159009;82;20886;-81
2021/10/12 01:40:47;;;;;;;65.33;36.13;;;;;;;7.82;79.54;98923.11;2159063;82;20989;-81
2021/10/12 01:43:47;;;;;;;67.43;38.27;;;;;;;7.78;79.47;98913.87;2159132;82;20926;-80
2021/10/12 01:46:48;;;;;;;63.60;37.17;;;;;;;7.78;79.43;98924.26;2159003;83;20945;-81
2021/10/12 01:49:48;;;;;;;59.13;36.93;;;;;;;7.76;79.12;98907.34;2158795;82;21411;-81
2021/10/12 01:52:49;;;;;;;57.60;36.13;;;;;;;7.76;79.05;98906.03;2159181;83;20926;-81
2021/10/12 01:55:50;;;;;;;48.33;31.10;;;;;;;7.79;78.81;98904.81;2159092;82;21115;-82
2021/10/12 01:58:50;;;;;;;59.10;34.87;;;;;;;7.80;79.74;98899.19;2158873;82;20953;-82
2021/10/12 02:01:51;;;;;;;55.87;33.13;;;;;;;7.80;79.31;98900.48;2158852;82;21308;-80
2021/10/12 02:04:51;;;;;;;54.13;31.90;;;;;;;7.78;79.89;98893.95;2158894;82;20961;-81
2021/10/12 02:07:52;;;;;;;51.40;33.50;;;;;;;7.75;79.50;98888.69;2158926;82;20925;-82
2021/10/12 02:10:52;;;;;;;50.00;30.70;;;;;;;7.76;79.22;98883.07;2159202;82;20953;-82
2021/10/12 02:13:59;;;;;;;55.03;33.23;;;;;;;7.78;79.80;98882.69;2159332;82;21348;-81
2021/10/12 02:16:59;;;;;;;55.90;32.53;;;;;;;7.76;79.80;98869.66;2159122;83;20945;-82
2021/10/12 02:20:00;;;;;;;52.97;32.50;;;;;;;7.76;79.58;98872.25;2158826;82;20981;-81
2021/10/12 02:23:00;;;;;;;49.90;31.80;;;;;;;7.77;79.36;98870.11;2159317;82;21375;-83
2021/10/12 02:26:01;;;;;;;52.50;30.97;;;;;;;7.77;79.30;98869.23;2158949;82;20925;-77
2021/10/12 02:29:01;;;;;;;54.67;31.43;;;;;;;7.80;79.65;98860.21;2159266;82;20976;-82
2021/10/12 02:32:02;;;;;;;47.67;29.20;;;;;;;7.80;80.04;98865.41;2159211;82;20949;-81
2021/10/12 02:35:03;;;;;;;49.90;31.17;;;;;;;7.81;79.97;98865.90;2158562;83;20941;-81
2021/10/12 02:38:03;;;;;;;53.33;31.30;;;;;;;7.82;79.79;98862.45;2158422;82;20981;-81
2021/10/12 02:41:04;;;;;;;57.53;31.70;;;;;;;7.81;79.49;98854.20;2158197;83;20956;-80
2021/10/12 02:44:04;;;;;;;49.60;29.10;;;;;;;7.80;79.95;98853.72;2158410;82;20934;-80
2021/10/12 02:47:05;;;;;;;51.23;28.93;;;;;;;7.78;80.22;98855.40;2158467;82;21301;-80
2021/10/12 02:50:06;;;;;;;51.37;30.40;;;;;;;7.79;80.18;98861.05;2159140;83;20996;-80
2021/10/12 02:53:06;;;;;;;49.73;29.07;;;;;;;7.78;79.51;98851.50;2159227;83;20922;-80
2021/10/12 02:56:07;;;;;;;46.27;28.13;;;;;;;7.79;79.78;98851.95;2159120;83;20941;-80
2021/10/12 02:59:08;;;;;;;50.27;29.40;;;;;;;7.81;80.24;98847.70;2158829;82;20972;-81
2021/10/12 03:02:08;;;;;;;44.23;27.03;;;;;;;7.79;80.01;98850.66;2158762;82;20941;-81
2021/10/12 03:05:08;;;;;;;47.87;27.10;;;;;;;7.78;79.64;98843.70;2158816;82;20982;-79
2021/10/12 03:08:09;;;;;;;39.73;25.47;;;;;;;7.80;80.25;98849.81;2158602;82;20925;-81
2021/10/12 03:11:09;;;;;;;39.80;24.20;;;;;;;7.80;80.10;98845.92;2158447;82;21396;-81
2021/10/12 03:14:10;;;;;;;52.30;26.40;;;;;;;7.78;80.20;98838.09;2159029;82;21317;-82
2021/10/12 03:17:10;;;;;;;44.23;26.07;;;;;;;7.80;79.62;98836.82;2159356;82;20940;-80
2021/10/12 03:20:11;;;;;;;41.53;24.40;;;;;;;7.81;80.13;98836.89;2158465;82;20969;-79
2021/10/12 03:23:11;;;;;;;37.80;24.00;;;;;;;7.81;80.61;98835.59;2158338;82;20929;-81
2021/10/12 03:26:12;;;;;;;43.03;27.97;;;;;;;7.81;79.79;98830.39;2158327;82;20894;-80
2021/10/12 03:29:13;;;;;;;45.87;27.77;;;;;;;7.83;79.63;98827.83;2158425;83;20981;-81
2021/10/12 03:32:13;;;;;;;43.20;28.10;;;;;;;7.86;79.87;98833.09;2157909;82;20957;-80
2021/10/12 03:35:16;;;;;;;49.03;26.83;;;;;;;7.85;80.54;98819.65;2158429;82;20947;-82
2021/10/12 03:38:16;;;;;;;46.23;28.37;;;;;;;7.81;80.35;98818.70;2158009;82;21013;-80
2021/10/12 03:41:17;;;;;;;49.97;26.77;;;;;;;7.78;80.31;98820.32;2158030;82;21000;-80
2021/10/12 03:44:17;;;;;;;45.93;27.07;;;;;;;7.75;81.00;98812.45;2158465;82;20972;-80
2021/10/12 03:47:17;;;;;;;38.60;22.60;;;;;;;7.73;81.26;98810.25;2158369;82;21309;-80
2021/10/12 03:50:18;;;;;;;31.37;21.17;;;;;;;7.69;81.73;98808.00;2158665;82;21016;-79
2021/10/12 03:53:18;;;;;;;35.30;21.53;;;;;;;7.68;81.10;98806.25;2158630;82;20970;-80
2021/10/12 03:56:19;;;;;;;36.30;22.13;;;;;;;7.67;80.79;98800.59;2158785;82;20913;-80
2021/10/12 03:59:19;;;;;;;33.90;21.83;;;;;;;7.67;81.11;98793.67;2158708;82;20930;-79
2021/10/12 04:02:20;;;;;;;43.07;22.83;;;;;;;7.68;80.72;98797.16;2158871;82;20933;-81
2021/10/12 04:05:21;;;;;;;35.90;23.00;;;;;;;7.71;80.63;98792.45;2158877;82;20984;-80
2021/10/12 04:08:21;;;;;;;30.83;21.40;;;;;;;7.71;80.69;98789.42;2158307;82;20937;-81
2021/10/12 04:11:23;;;;;;;34.67;22.33;;;;;;;7.76;80.21;98790.83;2157982;83;21037;-80
2021/10/12 04:14:23;;;;;;;36.97;23.63;;;;;;;7.79;80.81;98785.27;2158974;82;21409;-80
2021/10/12 04:17:24;;;;;;;43.13;23.13;;;;;;;7.81;80.22;98792.72;2159012;82;20973;-79
2021/10/12 04:20:26;;;;;;;42.07;21.97;;;;;;;7.83;80.29;98784.95;2157775;82;20981;-80
2021/10/12 04:23:26;;;;;;;40.87;24.33;;;;;;;7.86;79.88;98783.30;2157104;82;20932;-80
2021/10/12 04:26:27;;;;;;;43.57;27.67;;;;;;;7.89;79.97;98774.27;2157247;82;20981;-77
2021/10/12 04:29:27;;;;;;;45.13;26.13;;;;;;;7.92;80.02;98774.75;2156669;83;21348;-79
2021/10/12 04:32:28;;;;;;;46.50;26.43;;;;;;;7.95;80.67;98767.90;2157418;82;21389;-80
2021/10/12 04:35:28;;;;;;;39.40;26.10;;;;;;;7.92;80.61;98769.13;2158046;82;20944;-80
2021/10/12 04:38:29;;;;;;;38.97;24.77;;;;;;;7.89;80.75;98766.89;2157948;82;20973;-78
2021/10/12 04:41:29;;;;;;;55.60;28.87;;;;;;;7.87;81.53;98767.28;2158266;82;20988;-79
2021/10/12 04:44:30;;;;;;;39.07;26.87;;;;;;;7.87;80.93;98769.45;2158507;82;20926;-80
2021/10/12 04:47:30;;;;;;;37.00;25.13;;;;;;;7.89;80.92;98763.88;2157991;82;20953;-80
2021/10/12 04:50:31;;;;;;;43.67;27.30;;;;;;;7.92;81.07;98762.64;2158501;82;21376;-79
2021/10/12 04:53:31;;;;;;;37.63;22.10;;;;;;;7.97;80.94;98762.30;2158030;82;20922;-81
2021/10/12 04:56:32;;;;;;;44.30;26.37;;;;;;;8.02;81.11;98764.13;2158410;82;20985;-82
2021/10/12 04:59:32;;;;;;;46.27;28.63;;;;;;;8.03;80.77;98761.55;2158847;82;20913;-79
2021/10/12 05:02:33;;;;;;;45.90;27.20;;;;;;;8.05;80.79;98763.77;2158738;83;20985;-81
2021/10/12 05:05:33;;;;;;;48.47;28.57;;;;;;;8.03;81.67;98762.86;2148581;82;21335;-81
2021/10/12 05:08:34;;;;;;;54.80;35.43;;;;;;;7.97;81.21;98757.53;2147835;83;20979;-80
2021/10/12 05:11:34;;;;;;;57.70;33.20;;;;;;;7.96;81.32;98760.55;2147815;83;20935;-80
2021/10/12 05:14:35;;;;;;;50.37;32.17;;;;;;;7.96;81.80;98752.75;2148132;83;20934;-81
2021/10/12 05:17:37;;;;;;;44.30;26.57;;;;;;;7.96;81.20;98755.78;2146790;83;20896;-80
2021/10/12 05:20:38;;;;;;;45.13;27.63;;;;;;;7.96;81.40;98753.18;2146505;83;21021;-79
2021/10/12 05:23:38;;;;;;;39.07;25.03;;;;;;;7.98;81.41;98760.16;2146649;83;20943;-80
2021/10/12 05:26:39;;;;;;;48.33;27.33;;;;;;;8.00;81.79;98761.49;2146313;83;20923;-80
2021/10/12 05:29:39;;;;;;;43.00;24.40;;;;;;;7.96;81.39;98760.98;2146271;83;20963;-82
2021/10/12 05:32:40;;;;;;;36.97;22.50;;;;;;;7.98;81.58;98759.28;2147334;83;21322;-82
2021/10/12 05:35:41;;;;;;;37.77;23.37;;;;;;;8.00;81.41;98757.59;2147800;83;21307;-81
2021/10/12 05:38:41;;;;;;;37.80;24.37;;;;;;;8.04;81.58;98758.11;2147761;83;20938;-82
2021/10/12 05:41:42;;;;;;;36.00;22.37;;;;;;;8.08;81.35;98757.75;2147087;83;21335;-83
2021/10/12 05:44:42;;;;;;;41.03;26.87;;;;;;;8.13;81.47;98757.00;2147725;83;20974;-82
2021/10/12 05:47:43;;;;;;;44.67;28.63;;;;;;;8.14;81.17;98753.97;2147979;83;20932;-82
2021/10/12 05:50:46;;;;;;;47.37;28.50;;;;;;;8.18;81.37;98763.59;2146891;83;21014;-83
2021/10/12 05:53:49;;;;;;;50.40;28.20;;;;;;;8.22;81.25;98761.50;2148083;83;20940;-81
2021/10/12 05:57:04;;;;;;;43.63;26.60;;;;;;;8.21;81.39;98764.53;2147090;83;20916;-81
2021/10/12 05:59:59;;;;;;;42.13;25.50;;;;;;;8.20;81.38;98763.20;2145886;83;20934;-80
2021/10/12 06:03:00;;;;;;;44.77;25.60;;;;;;;8.21;81.31;98763.65;2146304;83;21002;-81
2021/10/12 06:06:01;;;;;;;47.77;26.23;;;;;;;8.24;81.44;98761.98;2145840;82;21145;-81
2021/10/12 06:09:03;;;;;;;50.83;27.93;;;;;;;8.27;81.68;98759.45;2146543;83;20947;-81
2021/10/12 06:12:03;;;;;;;39.40;26.23;;;;;;;8.31;81.83;98765.16;2147744;83;20915;-81
2021/10/12 06:15:04;;;;;;;39.03;25.50;;;;;;;8.33;81.65;98756.51;2146956;83;20928;-83
2021/10/12 06:18:04;;;;;;;47.50;25.70;;;;;;;8.36;81.43;98756.60;2147480;83;20927;-82
2021/10/12 06:21:05;;;;;;;43.60;26.17;;;;;;;8.41;81.48;98759.74;2147985;83;20999;-82
2021/10/12 06:24:05;;;;;;;45.77;28.63;;;;;;;8.40;81.14;98761.89;2147770;83;20939;-80
2021/10/12 06:27:06;;;;;;;49.27;28.07;;;;;;;8.42;81.54;98764.52;2147913;83;21492;-83
2021/10/12 06:30:06;;;;;;;49.90;29.60;;;;;;;8.44;81.81;98766.30;2147625;83;21666;-83
2021/10/12 06:33:07;;;;;;;46.63;29.53;;;;;;;8.37;81.36;98766.16;2147679;83;20939;-82
2021/10/12 06:36:08;;;;;;;51.57;28.73;;;;;;;8.29;81.49;98755.15;2147313;83;20978;-82
2021/10/12 06:39:11;;;;;;;47.53;32.10;;;;;;;8.35;81.71;98766.55;2148507;83;20959;-81
2021/10/12 06:42:12;;;;;;;52.73;34.17;;;;;;;8.48;81.36;98762.03;2147811;83;20943;-83
2021/10/12 06:45:16;;;;;;;50.07;31.73;;;;;;;8.75;81.01;98760.39;2147594;83;20983;-82
2021/10/12 06:48:15;;;;;;;52.07;29.70;;;;;;;8.91;80.73;98757.20;2147251;83;21267;-82
2021/10/12 06:51:15;;;;;;;45.63;27.40;;;;;;;8.88;80.71;98761.05;2146444;83;21027;-81
2021/10/12 06:54:16;;;;;;;52.40;29.53;;;;;;;8.79;80.97;98761.77;2147510;83;20983;-82
2021/10/12 06:57:16;;;;;;;45.80;28.17;;;;;;;8.70;81.20;98760.73;2146655;83;21362;-82
2021/10/12 07:00:17;;;;;;;45.03;26.77;;;;;;;8.70;82.04;98769.42;2147130;83;21359;-82
2021/10/12 07:03:17;;;;;;;44.43;25.70;;;;;;;8.62;81.42;98767.06;2147044;83;20935;-81
2021/10/12 07:06:18;;;;;;;38.00;24.27;;;;;;;8.55;81.42;98773.89;2157504;83;20993;-82
2021/10/12 07:09:18;;;;;;;43.97;26.00;;;;;;;8.58;81.90;98776.55;2158138;82;20909;-82
2021/10/12 07:12:19;;;;;;;42.47;25.40;;;;;;;8.56;81.95;98774.34;2158078;82;20972;-82
2021/10/12 07:15:19;;;;;;;40.13;23.50;;;;;;;8.47;82.19;98775.89;2158106;82;21095;-81
2021/10/12 07:18:20;;;;;;;34.67;22.03;;;;;;;8.40;82.24;98774.90;2158071;82;20952;-82
2021/10/12 07:21:21;;;;;;;33.67;21.90;;;;;;;8.39;82.10;98774.87;2157372;82;20972;-82
2021/10/12 07:24:22;;;;;;;32.10;21.00;;;;;;;8.46;82.31;98774.14;2157644;82;21345;-81
2021/10/12 07:27:22;;;;;;;21.90;14.70;;;;;;;8.63;82.33;98772.30;2157353;82;21001;-83
2021/10/12 07:30:23;;;;;;;34.77;20.73;;;;;;;10.06;90.72;98761.09;2157571;82;20992;-83
2021/10/12 07:33:23;;;;;;;28.03;19.17;;;;;;;11.13;77.77;98754.00;2158800;82;21345;-81
2021/10/12 07:36:24;;;;;;;27.07;19.03;;;;;;;10.94;76.44;98756.02;2159099;82;20933;-81
2021/10/12 07:39:24;;;;;;;25.63;17.40;;;;;;;11.03;75.75;98756.09;2158896;82;21000;-83
2021/10/12 07:42:25;;;;;;;27.73;16.23;;;;;;;11.11;79.79;98749.20;2158865;82;20996;-82
2021/10/12 07:45:25;;;;;;;27.80;16.97;;;;;;;12.93;81.19;98749.68;2158668;82;20977;-84
2021/10/12 07:48:26;;;;;;;26.33;16.23;;;;;;;14.79;72.64;98733.11;2159103;83;20917;-82
2021/10/12 07:51:27;;;;;;;20.97;14.13;;;;;;;15.95;69.64;98740.45;2158480;83;20992;-83
2021/10/12 07:54:38;;;;;;;26.62;17.05;;;;;;;16.72;66.80;98745.22;2157852;82;20977;-84
2021/10/12 07:57:30;;;;;;;21.02;13.65;;;;;;;16.53;65.87;98745.89;2156605;82;20945;-84
2021/10/12 08:00:31;;;;;;;24.15;13.78;;;;;;;17.07;62.65;98735.01;2157843;83;20957;-83
2021/10/12 08:03:32;;;;;;;22.42;13.20;;;;;;;17.71;62.56;98728.69;2157945;82;20988;-84
2021/10/12 08:06:33;;;;;;;21.75;12.25;;;;;;;17.71;56.55;98730.00;2147467;82;21311;-81
2021/10/12 08:09:35;;;;;;;17.95;12.37;;;;;;;17.23;57.29;98730.80;2148557;83;20943;-83
2021/10/12 08:12:35;;;;;;;20.08;11.95;;;;;;;17.40;59.62;98724.82;2148089;83;21372;-84
2021/10/12 08:15:39;;;;;;;19.17;11.95;;;;;;;17.16;57.58;98724.31;2147480;83;20960;-82
2021/10/12 08:18:39;;;;;;;17.85;12.88;;;;;;;17.44;59.56;98718.59;2147109;83;21374;-82
2021/10/12 08:21:39;;;;;;;18.23;12.35;;;;;;;18.28;57.03;98710.41;2146412;83;20979;-83
2021/10/12 08:24:40;;;;;;;12.47;9.83;;;;;;;17.82;54.49;98712.64;2147710;83;20943;-82
2021/10/12 08:27:41;;;;;;;15.38;10.55;;;;;;;17.15;53.19;98721.25;2147983;83;21394;-84
2021/10/12 08:30:41;;;;;;;17.42;11.20;;;;;;;16.19;54.96;98719.09;2147187;83;21003;-82
2021/10/12 08:33:42;;;;;;;18.55;11.55;;;;;;;15.36;55.91;98716.88;2147113;83;20908;-82
2021/10/12 08:36:42;;;;;;;14.05;10.15;;;;;;;15.36;55.91;98716.88;2147178;83;20903;-82
2021/10/12 08:39:44;;;;;;;16.25;10.30;;;;;;;14.43;55.96;98727.61;2147070;83;20959;-82
2021/10/12 08:42:45;;;;;;;12.82;9.60;;;;;;;13.94;57.86;98726.48;2147191;83;20967;-83
2021/10/12 08:45:47;;;;;;;14.80;9.55;;;;;;;13.92;60.09;98723.43;2147459;83;21075;-82
2021/10/12 08:48:48;;;;;;;19.37;9.95;;;;;;;13.62;58.62;98723.92;2147184;83;20908;-83
2021/10/12 08:51:49;;;;;;;14.47;9.63;;;;;;;14.00;61.45;98729.08;2147175;83;21003;-80
2021/10/12 08:54:49;;;;;;;18.48;9.68;;;;;;;15.12;57.72;98720.16;2147253;83;20956;-81
2021/10/12 08:57:50;;;;;;;17.05;11.05;;;;;;;14.42;56.16;98719.30;2147740;83;20936;-88
2021/10/12 09:00:50;;;;;;;13.10;9.75;;;;;;;13.02;59.49;98723.08;2147196;83;21125;-84
2021/10/12 09:03:58;;;;;;;15.93;9.28;;;;;;;13.23;60.43;98731.41;2129640;83;20931;-82
2021/10/12 09:06:54;;;;;;;13.70;9.23;;;;;;;13.30;62.42;98721.35;2147257;83;20974;-82
2021/10/12 09:09:54;;;;;;;15.50;8.03;;;;;;;14.73;60.87;98717.35;2148308;83;20900;-82
2021/10/12 09:12:58;;;;;;;14.28;8.20;;;;;;;16.14;59.86;98709.93;2147740;83;20932;-83
2021/10/12 09:15:57;;;;;;;14.30;7.08;;;;;;;15.92;51.35;98713.72;2147674;83;21313;-83
2021/10/12 09:18:58;;;;;;;16.57;6.62;;;;;;;13.79;55.37;98705.95;2148288;83;20936;-82
2021/10/12 09:21:59;;;;;;;8.80;5.90;;;;;;;12.61;57.33;98712.97;2147254;83;21315;-82
2021/10/12 09:24:59;;;;;;;13.03;6.47;;;;;;;11.82;59.55;98713.56;2147314;83;21355;-83
2021/10/12 09:28:00;;;;;;;11.93;6.30;;;;;;;11.27;61.08;98716.23;2147147;83;20939;-81
2021/10/12 09:31:00;;;;;;;9.98;6.42;;;;;;;10.87;62.21;98707.21;2147174;83;21066;-83
2021/10/12 09:34:02;;;;;;;13.03;7.10;;;;;;;10.51;63.72;98709.50;2146448;83;20919;-80
2021/10/12 09:37:02;;;;;;;12.57;6.97;;;;;;;10.23;64.19;98711.34;2146803;83;20958;-81
2021/10/12 09:40:03;;;;;;;17.97;7.10;;;;;;;10.03;65.03;98721.52;2147787;83;20935;-82
2021/10/12 09:43:03;;;;;;;12.33;7.20;;;;;;;10.02;65.40;98711.06;2147707;83;20963;-82
2021/10/12 09:46:04;;;;;;;11.63;7.60;;;;;;;10.14;66.19;98702.95;2147675;83;21386;-82
2021/10/12 09:49:04;;;;;;;9.20;6.17;;;;;;;10.39;65.96;98692.38;2147190;83;20951;-82
2021/10/12 09:52:06;;;;;;;15.27;7.90;;;;;;;10.72;65.46;98680.11;2147284;83;21007;-80
2021/10/12 09:55:07;;;;;;;13.70;6.43;;;;;;;11.16;64.83;98682.19;2148176;83;20975;-82
2021/10/12 09:58:07;;;;;;;13.10;5.87;;;;;;;11.59;63.50;98675.51;2147167;83;20939;-81
2021/10/12 10:01:07;;;;;;;11.70;6.00;;;;;;;11.82;62.50;98673.46;2148183;83;20991;-79
2021/10/12 10:04:10;;;;;;;8.97;4.10;;;;;;;11.65;62.50;98673.36;2147445;82;20970;-82
2021/10/12 10:07:10;;;;;;;7.37;4.50;;;;;;;11.41;61.29;98677.59;2137955;83;20943;-82
2021/10/12 10:10:11;;;;;;;7.07;3.53;;;;;;;11.17;61.24;98679.58;2137964;83;20944;-82
2021/10/12 10:13:11;;;;;;;8.40;3.93;;;;;;;11.15;61.51;98676.09;2137566;83;20987;-83
2021/10/12 10:16:12;;;;;;;8.90;3.60;;;;;;;11.20;61.42;98676.12;2137939;83;20960;-82
2021/10/12 10:19:13;;;;;;;6.25;2.33;;;;;;;11.21;60.12;98665.23;2138424;83;20936;-82
2021/10/12 10:22:13;;;;;;;5.37;3.03;;;;;;;11.30;58.54;98664.02;2138290;83;20995;-81
2021/10/12 10:25:13;;;;;;;5.85;3.02;;;;;;;11.44;58.73;98662.36;2137853;83;20934;-81
2021/10/12 10:28:14;;;;;;;11.23;4.30;;;;;;;11.57;58.49;98663.30;2138111;83;20951;-82
2021/10/12 10:31:15;;;;;;;5.90;3.02;;;;;;;11.49;57.87;98661.52;2138694;83;21682;-80
2021/10/12 10:34:15;;;;;;;5.40;2.83;;;;;;;11.45;57.43;98664.98;2138435;83;20987;-82
2021/10/12 10:37:15;;;;;;;4.90;3.50;;;;;;;11.35;57.54;98659.27;2138959;83;21000;-81
2021/10/12 10:40:16;;;;;;;9.07;3.87;;;;;;;11.27;58.28;98657.03;2138703;83;20992;-80
2021/10/12 10:43:17;;;;;;;7.70;3.13;;;;;;;11.23;59.12;98655.23;2137950;83;21051;-81
2021/10/12 10:46:17;;;;;;;9.80;3.80;;;;;;;11.28;59.40;98648.33;2138354;83;20979;-81
2021/10/12 10:49:18;;;;;;;6.55;2.85;;;;;;;11.65;58.89;98645.91;2138357;83;20932;-82
2021/10/12 10:52:21;;;;;;;6.62;3.70;;;;;;;12.09;58.70;98640.42;2137512;83;21022;-83
2021/10/12 10:55:21;;;;;;;9.18;3.37;;;;;;;12.37;57.75;98639.20;2136989;83;20948;-84
2021/10/12 10:58:23;;;;;;;8.45;2.72;;;;;;;12.40;58.12;98639.20;2136720;83;20941;-81
2021/10/12 11:01:24;;;;;;;7.58;3.33;;;;;;;12.25;54.36;98631.33;2137077;83;21579;-80
2021/10/12 11:04:24;;;;;;;8.35;2.87;;;;;;;12.09;55.21;98629.95;2137652;83;21047;-81
2021/10/12 11:07:25;;;;;;;9.88;3.33;;;;;;;11.98;55.95;98625.13;2158599;82;20972;-82
2021/10/12 11:10:25;;;;;;;7.28;3.10;;;;;;;11.76;54.31;98620.67;2158824;83;20953;-79
2021/10/12 11:13:26;;;;;;;4.72;2.62;;;;;;;11.59;55.21;98620.61;2158324;82;20980;-81
2021/10/12 11:16:26;;;;;;;4.87;2.63;;;;;;;11.53;55.32;98615.36;2157788;83;20993;-81
2021/10/12 11:19:27;;;;;;;5.92;2.58;;;;;;;11.48;55.05;98623.17;2157282;82;21629;-80
2021/10/12 11:22:27;;;;;;;5.58;2.62;;;;;;;11.52;54.27;98617.53;2157173;82;20964;-74
2021/10/12 11:25:28;;;;;;;2.95;1.90;;;;;;;11.73;54.39;98621.97;2157065;82;20984;-81
2021/10/12 11:28:28;;;;;;;4.00;2.00;;;;;;;11.64;51.88;98611.48;2157524;82;20988;-79
2021/10/12 11:31:29;;;;;;;6.22;3.05;;;;;;;11.50;52.81;98612.73;2157170;82;20929;-79
2021/10/12 11:34:32;;;;;;;5.30;2.40;;;;;;;11.46;53.47;98603.12;2157472;82;20987;-80
2021/10/12 11:37:34;;;;;;;6.33;3.30;;;;;;;11.71;54.28;98596.25;2134406;83;20937;-80
2021/10/12 11:40:34;;;;;;;8.40;3.00;;;;;;;11.93;53.90;98579.78;2158140;82;20937;-81
2021/10/12 11:43:37;;;;;;;8.25;2.92;;;;;;;12.20;54.67;98576.80;2158831;82;20905;-80
2021/10/12 11:46:37;;;;;;;8.38;2.67;;;;;;;12.48;53.82;98572.02;2158543;82;20945;-80
2021/10/12 11:49:39;;;;;;;4.25;2.72;;;;;;;12.57;52.98;98561.98;2158415;82;20941;-81
2021/10/12 11:52:41;;;;;;;5.47;2.30;;;;;;;12.77;50.71;98558.91;2158525;82;20973;-81
2021/10/12 11:55:41;;;;;;;7.10;2.20;;;;;;;12.88;50.64;98558.88;2159196;82;20905;-80
2021/10/12 11:58:42;;;;;;;6.58;2.35;;;;;;;12.96;50.87;98551.44;2159442;82;20936;-80
2021/10/12 12:01:43;;;;;;;7.60;2.42;;;;;;;13.01;50.60;98548.41;2159154;82;20970;-82
2021/10/12 12:04:43;;;;;;;4.12;2.35;;;;;;;12.98;50.97;98551.00;2157578;82;21035;-80
2021/10/12 12:07:47;;;;;;;4.87;3.10;;;;;;;13.13;50.21;98552.73;2135281;83;20942;-81
2021/10/12 12:10:47;;;;;;;8.88;3.30;;;;;;;13.14;48.13;98560.16;2158344;82;20968;-80
2021/10/12 12:13:48;;;;;;;6.00;3.35;;;;;;;12.75;51.19;98572.00;2159262;82;20941;-80
2021/10/12 12:16:48;;;;;;;6.45;2.77;;;;;;;12.29;53.69;98577.69;2158490;82;20933;-78
2021/10/12 12:19:49;;;;;;;8.30;3.70;;;;;;;11.80;54.76;98574.95;2158674;82;20928;-79
2021/10/12 12:22:49;;;;;;;10.85;3.10;;;;;;;11.62;56.21;98564.84;2158157;82;20956;-79
2021/10/12 12:25:50;;;;;;;8.68;3.00;;;;;;;11.65;55.80;98559.20;2159221;82;21336;-78
2021/10/12 12:28:50;;;;;;;6.80;2.60;;;;;;;11.62;56.05;98556.57;2159327;82;20942;-79
2021/10/12 12:31:51;;;;;;;5.83;2.67;;;;;;;11.52;55.78;98551.31;2159482;82;20937;-79
2021/10/12 12:34:52;;;;;;;9.08;2.62;;;;;;;11.55;56.21;98547.40;2158556;83;21060;-79
2021/10/12 12:37:54;;;;;;;31.07;8.68;;;;;;;11.71;55.35;98543.95;2134671;83;21308;-79
2021/10/12 12:40:54;;;;;;;10.60;4.10;;;;;;;11.84;55.47;98535.30;2159088;82;20968;-80
2021/10/12 12:43:55;;;;;;;4.53;2.72;;;;;;;11.99;54.77;98532.71;2158344;82;20949;-77
2021/10/12 12:46:56;;;;;;;5.60;2.60;;;;;;;12.04;54.30;98532.28;2158091;83;20945;-80
2021/10/12 12:49:58;;;;;;;11.63;3.17;;;;;;;12.15;54.41;98524.91;2135498;83;20956;-80
2021/10/12 12:52:59;;;;;;;10.45;3.83;;;;;;;12.22;54.51;98513.57;2158519;82;20951;-79
2021/10/12 12:56:00;;;;;;;5.70;3.27;;;;;;;12.25;53.72;98512.26;2157557;82;20945;-78
2021/10/12 12:59:00;;;;;;;5.70;2.55;;;;;;;12.27;53.20;98502.66;2157539;82;20949;-79
2021/10/12 13:02:01;;;;;;;9.13;3.17;;;;;;;12.29;53.65;98497.87;2157747;82;20976;-78
2021/10/12 13:05:01;;;;;;;5.72;3.17;;;;;;;12.43;53.64;98494.80;2156681;82;21749;-79
2021/10/12 13:08:02;;;;;;;5.55;3.00;;;;;;;12.43;53.25;98497.42;2146462;83;20979;-79
2021/10/12 13:11:02;;;;;;;8.13;2.75;;;;;;;12.31;53.85;98497.87;2147450;83;20936;-78
2021/10/12 13:14:03;;;;;;;10.50;3.37;;;;;;;12.24;53.94;98493.07;2146818;83;20991;-79
2021/10/12 13:17:04;;;;;;;8.18;3.52;;;;;;;12.24;54.12;98489.14;2146632;83;20943;-79
2021/10/12 13:20:04;;;;;;;7.83;3.50;;;;;;;12.25;53.51;98477.80;2146260;83;20944;-79
2021/10/12 13:23:05;;;;;;;7.62;3.42;;;;;;;12.21;52.77;98480.42;2147339;83;21008;-79
2021/10/12 13:26:05;;;;;;;8.00;3.77;;;;;;;12.12;53.36;98479.52;2147865;83;20951;-79
2021/10/12 13:29:06;;;;;;;8.00;3.80;;;;;;;12.00;53.38;98481.27;2148136;83;20935;-80
2021/10/12 13:32:06;;;;;;;9.33;3.95;;;;;;;11.90;53.46;98479.08;2148573;83;21366;-77
2021/10/12 13:35:07;;;;;;;9.68;4.65;;;;;;;11.89;53.20;98482.56;2147289;83;21003;-81
2021/10/12 13:38:07;;;;;;;7.28;4.55;;;;;;;11.84;51.60;98480.82;2148273;83;20927;-81
2021/10/12 13:41:08;;;;;;;7.90;4.60;;;;;;;11.86;52.31;98470.80;2148562;83;21030;-81
2021/10/12 13:44:08;;;;;;;7.15;3.62;;;;;;;11.95;52.49;98466.88;2148498;83;20975;-82
2021/10/12 13:47:09;;;;;;;10.70;5.35;;;;;;;12.10;52.31;98466.88;2148789;83;20943;-83
2021/10/12 13:50:09;;;;;;;12.35;6.12;;;;;;;12.16;52.36;98464.73;2147944;83;21343;-82
2021/10/12 13:53:11;;;;;;;12.80;5.95;;;;;;;12.21;52.56;98458.19;2148353;83;21138;-81
2021/10/12 13:56:11;;;;;;;14.25;6.83;;;;;;;12.18;52.29;98458.19;2147689;83;20991;-81
2021/10/12 13:59:12;;;;;;;7.22;3.72;;;;;;;12.12;52.62;98462.52;2147836;83;20947;-82
2021/10/12 14:02:12;;;;;;;7.15;3.50;;;;;;;12.24;52.05;98463.41;2147364;83;21006;-81